Time;durP1;ratioP1;P1;durP2;ratioP2;P2;SDS_P1;SDS_P2;PMS_P1;PMS_P2;Temp;Humidity;BMP_temperature;BMP_pressure;BME280_temperature;BME280_humidity;BME280_pressure;Samples;Min_cycle;Max_cycle;Signal;HPM_P1;HPM_P2
2021/01/30 00:00:40;;;;;;;88.38;45.60;;;;;;;2.31;87.45;95667.28;4985586;28;20046;-62
2021/01/30 00:03:06;;;;;;;95.57;45.60;;;;;;;2.19;87.54;95648.25;4987152;28;20509;-60
2021/01/30 00:05:32;;;;;;;75.25;36.53;;;;;;;2.24;87.00;95644.44;4985578;28;20030;-60
2021/01/30 00:07:58;;;;;;;76.80;38.20;;;;;;;2.17;86.14;95612.28;4985681;28;20709;-60
2021/01/30 00:10:24;;;;;;;96.95;44.90;;;;;;;2.48;85.93;95655.22;4987030;28;20046;-60
2021/01/30 00:12:50;;;;;;;107.10;46.95;;;;;;;1.94;84.51;95536.78;4987094;28;20570;-61
2021/01/30 00:15:19;;;;;;;102.45;43.90;;;;;;;2.62;85.19;95642.72;4985280;28;20077;-60
2021/01/30 00:17:45;;;;;;;88.35;38.13;;;;;;;2.52;85.18;95650.63;4985181;28;20054;-60
2021/01/30 00:20:12;;;;;;;76.63;33.53;;;;;;;2.46;85.37;95654.78;4985209;28;20042;-61
2021/01/30 00:22:37;;;;;;;71.82;34.78;;;;;;;2.28;85.62;95609.81;4987717;28;20034;-60
2021/01/30 00:25:04;;;;;;;61.30;30.48;;;;;;;2.55;85.41;95649.91;4987200;28;20519;-60
2021/01/30 00:27:29;;;;;;;47.47;23.15;;;;;;;2.34;84.81;95595.53;4985304;28;20121;-60
2021/01/30 00:29:55;;;;;;;66.40;28.90;;;;;;;2.53;84.92;95614.75;4987250;28;20042;-61
2021/01/30 00:32:21;;;;;;;61.40;27.83;;;;;;;2.56;85.76;95629.66;4986645;28;20031;-62
2021/01/30 00:34:47;;;;;;;58.88;28.52;;;;;;;2.57;85.89;95614.84;4987159;28;20046;-61
2021/01/30 00:37:16;;;;;;;57.92;27.85;;;;;;;2.55;85.63;95611.66;4985089;28;20038;-61
2021/01/30 00:39:42;;;;;;;51.60;28.77;;;;;;;2.56;85.50;95613.28;4987035;28;20133;-62
2021/01/30 00:42:09;;;;;;;54.67;28.15;;;;;;;2.53;85.36;95598.34;4986649;28;20348;-63
2021/01/30 00:44:35;;;;;;;57.20;28.30;;;;;;;2.61;85.61;95604.78;4986830;28;20116;-61
2021/01/30 00:47:01;;;;;;;51.88;28.83;;;;;;;2.59;85.25;95596.94;4986364;28;20121;-61
2021/01/30 00:49:27;;;;;;;54.50;30.20;;;;;;;2.65;84.81;95589.28;4986733;28;20111;-62
2021/01/30 00:51:53;;;;;;;52.17;29.15;;;;;;;2.61;85.51;95582.91;4986351;28;20665;-61
2021/01/30 00:54:19;;;;;;;51.22;28.63;;;;;;;2.55;86.02;95584.34;4984900;28;20038;-61
2021/01/30 00:56:49;;;;;;;49.67;27.42;;;;;;;2.51;85.61;95567.84;4985651;28;20069;-61
2021/01/30 00:59:15;;;;;;;53.47;28.35;;;;;;;2.60;85.61;95567.66;4986262;28;20077;-61
2021/01/30 01:01:41;;;;;;;65.40;32.10;;;;;;;1.72;85.42;95420.88;4986080;28;20030;-61
2021/01/30 01:04:07;;;;;;;66.45;33.72;;;;;;;2.17;85.53;95496.78;4984826;28;20042;-62
2021/01/30 01:06:33;;;;;;;68.10;35.20;;;;;;;2.65;85.54;95557.28;4986044;28;20053;-62
2021/01/30 01:09:00;;;;;;;63.15;34.08;;;;;;;2.59;85.46;95546.97;4984506;28;20046;-61
2021/01/30 01:11:26;;;;;;;78.85;41.25;;;;;;;2.58;85.89;95561.75;4984249;28;20034;-61
2021/01/30 01:13:51;;;;;;;79.32;41.08;;;;;;;2.54;85.95;95550.78;4986472;28;20069;-61
2021/01/30 01:16:18;;;;;;;102.18;42.28;;;;;;;2.23;86.58;95495.41;4986066;28;20061;-61
2021/01/30 01:18:46;;;;;;;90.38;42.80;;;;;;;1.54;87.00;95403.25;4985914;28;20104;-61
2021/01/30 01:21:12;;;;;;;88.82;39.35;;;;;;;2.17;87.82;95507.72;4985949;28;20072;-60
2021/01/30 01:23:42;;;;;;;85.68;38.03;;;;;;;2.27;88.04;95537.22;4983839;28;20141;-61
2021/01/30 01:26:09;;;;;;;81.28;34.40;;;;;;;2.28;88.34;95525.94;4984471;28;20026;-61
2021/01/30 01:28:35;;;;;;;127.43;42.78;;;;;;;1.86;87.67;95469.53;4985916;28;20034;-60
2021/01/30 01:31:02;;;;;;;116.80;45.42;;;;;;;2.23;87.94;95522.72;4985598;28;20568;-60
2021/01/30 01:33:28;;;;;;;70.10;29.63;;;;;;;1.62;91.98;95513.34;4985909;28;20049;-60
2021/01/30 01:35:53;;;;;;;58.70;29.90;;;;;;;1.49;94.27;95515.34;4983972;28;20030;-60
2021/01/30 01:38:19;;;;;;;65.25;31.48;;;;;;;1.64;94.69;95511.06;4985861;28;20042;-62
2021/01/30 01:40:45;;;;;;;58.33;29.63;;;;;;;1.72;93.77;95501.94;4985237;28;20124;-60
2021/01/30 01:43:14;;;;;;;57.90;29.00;;;;;;;1.76;93.34;95503.59;4984040;28;20026;-60
2021/01/30 01:45:40;;;;;;;61.97;31.63;;;;;;;1.81;92.95;95497.06;4985265;28;20033;-60
2021/01/30 01:48:14;;;;;;;59.45;31.35;;;;;;;1.77;91.90;95472.41;4983928;28;20524;-60
2021/01/30 01:50:45;;;;;;;59.75;29.88;;;;;;;1.95;91.68;95489.25;4985249;28;20520;-60
2021/01/30 01:53:17;;;;;;;52.35;28.33;;;;;;;1.92;91.64;95470.84;4985583;28;20053;-61
2021/01/30 01:55:53;;;;;;;54.15;28.15;;;;;;;2.19;90.98;95478.13;4985299;28;20042;-61
2021/01/30 01:58:21;;;;;;;57.83;29.08;;;;;;;2.26;89.78;95472.84;4985357;28;20533;-61
2021/01/30 02:00:47;;;;;;;82.68;33.75;;;;;;;2.22;89.83;95472.75;4985358;28;20026;-60
2021/01/30 02:03:13;;;;;;;64.68;28.67;;;;;;;2.31;88.95;95469.84;4985300;28;20080;-62
2021/01/30 02:05:39;;;;;;;72.13;29.95;;;;;;;2.06;87.59;95402.91;4983626;28;20031;-61
2021/01/30 02:08:08;;;;;;;86.43;36.60;;;;;;;2.40;87.88;95456.75;4985460;28;20037;-60
2021/01/30 02:10:46;;;;;;;125.35;54.20;;;;;;;2.47;87.85;95451.44;4985176;28;20135;-61
2021/01/30 02:13:25;;;;;;;122.47;48.90;;;;;;;2.39;87.89;95444.22;4985384;28;20088;-61
2021/01/30 02:15:59;;;;;;;98.38;45.05;;;;;;;2.43;87.65;95439.66;4983691;28;20100;-60
2021/01/30 02:19:01;;;;;;;68.65;32.65;;;;;;;1.39;87.76;95282.13;4985453;28;20082;-60
2021/01/30 02:21:53;;;;;;;88.35;40.83;;;;;;;2.38;88.01;95431.72;4984390;28;20552;-62
2021/01/30 02:24:28;;;;;;;61.92;31.42;;;;;;;2.43;88.02;95423.25;4985575;28;20066;-60
2021/01/30 02:27:11;;;;;;;60.35;27.17;;;;;;;2.42;87.81;95422.47;4983516;28;20073;-60
2021/01/30 02:29:52;;;;;;;58.88;28.48;;;;;;;0.56;87.86;95126.38;4983740;28;20752;-59
2021/01/30 02:32:52;;;;;;;54.55;26.77;;;;;;;2.41;88.02;95414.63;4984980;28;20037;-60
2021/01/30 02:35:55;;;;;;;60.90;29.50;;;;;;;2.36;88.07;95412.16;4985246;28;20145;-60
2021/01/30 02:38:28;;;;;;;64.65;28.70;;;;;;;2.45;87.42;95405.34;4983523;28;20038;-60
2021/01/30 02:41:00;;;;;;;48.83;22.70;;;;;;;1.92;87.63;95337.09;4984792;28;20039;-61
2021/01/30 02:43:34;;;;;;;59.43;27.33;;;;;;;2.44;87.87;95394.78;4983400;28;20348;-61
2021/01/30 02:46:06;;;;;;;98.05;38.67;;;;;;;2.48;87.25;95382.00;4985085;28;20117;-60
2021/01/30 02:48:38;;;;;;;93.97;39.63;;;;;;;2.44;87.63;95381.91;4983456;28;20047;-62
2021/01/30 02:51:07;;;;;;;98.90;40.25;;;;;;;2.45;87.53;95371.78;4984937;28;20030;-61
2021/01/30 02:53:37;;;;;;;59.53;29.48;;;;;;;2.51;86.99;95367.63;4983285;28;20046;-61
2021/01/30 02:56:05;;;;;;;42.80;22.35;;;;;;;2.56;86.15;95368.09;4984612;28;20100;-61
2021/01/30 02:58:48;;;;;;;50.63;25.42;;;;;;;2.56;85.95;95378.25;4984926;28;20635;-62
2021/01/30 03:01:14;;;;;;;63.45;29.75;;;;;;;2.08;86.60;95300.41;4983098;28;20399;-61
2021/01/30 03:03:40;;;;;;;67.63;30.52;;;;;;;2.60;86.23;95373.66;4984700;28;20487;-61
2021/01/30 03:06:29;;;;;;;65.72;30.52;;;;;;;1.58;86.12;95203.03;4984564;28;20030;-60
2021/01/30 03:09:21;;;;;;;71.40;34.42;;;;;;;2.46;87.37;95346.03;4984930;28;20053;-59
2021/01/30 03:11:56;;;;;;;77.30;34.55;;;;;;;2.42;87.75;95350.66;4984271;28;20440;-60
2021/01/30 03:14:24;;;;;;;60.72;32.17;;;;;;;1.61;88.33;95233.50;4983260;28;20045;-60
2021/01/30 03:16:50;;;;;;;71.63;34.40;;;;;;;2.30;89.03;95345.31;4984622;28;20053;-60
2021/01/30 03:19:22;;;;;;;73.93;36.95;;;;;;;2.29;89.41;95346.47;4984927;28;20131;-62
2021/01/30 03:22:01;;;;;;;72.88;35.88;;;;;;;2.28;89.46;95339.41;4988205;28;20035;-61
2021/01/30 03:24:28;;;;;;;73.97;35.17;;;;;;;2.20;89.90;95337.69;4988584;28;20065;-61
2021/01/30 03:26:54;;;;;;;72.95;38.40;;;;;;;1.97;91.95;95314.97;4987033;28;20033;-61
2021/01/30 03:29:20;;;;;;;75.22;39.72;;;;;;;2.17;91.92;95322.00;4986768;28;20043;-62
2021/01/30 03:31:46;;;;;;;81.10;40.70;;;;;;;2.31;91.78;95323.09;4988074;28;20046;-61
2021/01/30 03:34:12;;;;;;;92.05;42.88;;;;;;;1.73;91.35;95219.72;4988415;28;20038;-62
2021/01/30 03:36:38;;;;;;;61.28;34.75;;;;;;;2.27;91.49;95313.25;4987838;28;20564;-61
2021/01/30 03:39:15;;;;;;;69.07;35.28;;;;;;;2.08;91.41;95291.41;4987070;28;20054;-62
2021/01/30 03:41:42;;;;;;;61.22;32.38;;;;;;;2.21;92.89;95314.72;4987760;28;20042;-62
2021/01/30 03:44:09;;;;;;;66.57;35.22;;;;;;;2.19;93.44;95303.34;4987992;28;20132;-61
2021/01/30 03:46:34;;;;;;;63.88;35.40;;;;;;;2.25;93.44;95290.97;4986228;28;20626;-62
2021/01/30 03:49:00;;;;;;;88.85;45.67;;;;;;;2.09;93.60;95276.59;4987987;28;20139;-62
2021/01/30 03:51:25;;;;;;;90.30;46.15;;;;;;;2.14;93.65;95268.13;4987392;28;20038;-62
2021/01/30 03:53:50;;;;;;;86.78;46.65;;;;;;;2.18;94.68;95290.84;4986175;28;20047;-62
2021/01/30 03:56:16;;;;;;;88.15;43.70;;;;;;;2.30;94.69;95287.97;4985806;28;20030;-61
2021/01/30 03:58:45;;;;;;;79.88;42.97;;;;;;;2.21;94.40;95281.94;4987496;28;20046;-62
2021/01/30 04:01:10;;;;;;;74.35;40.70;;;;;;;2.33;94.78;95289.97;4985838;28;20045;-62
2021/01/30 04:03:36;;;;;;;86.38;42.65;;;;;;;2.42;94.40;95279.63;4985887;28;20030;-61
2021/01/30 04:06:01;;;;;;;125.95;61.22;;;;;;;1.81;94.56;95254.19;4987107;28;20022;-62
2021/01/30 04:08:26;;;;;;;63.15;33.78;;;;;;;2.44;94.67;95285.50;4987020;28;20038;-63
2021/01/30 04:10:52;;;;;;;113.35;54.00;;;;;;;2.42;94.97;95276.91;4986817;28;20038;-62
2021/01/30 04:13:18;;;;;;;77.15;40.63;;;;;;;2.42;95.67;95268.69;4987481;28;20129;-62
2021/01/30 04:15:44;;;;;;;69.25;37.33;;;;;;;2.50;94.93;95254.00;4986984;28;20508;-62
2021/01/30 04:18:11;;;;;;;67.28;34.97;;;;;;;2.50;95.02;95254.00;4985517;28;20046;-62
2021/01/30 04:20:37;;;;;;;67.93;34.20;;;;;;;2.52;95.22;95262.63;4985691;28;20066;-64
2021/01/30 04:23:04;;;;;;;69.97;33.08;;;;;;;2.54;95.11;95242.00;4985645;28;20092;-62
2021/01/30 04:25:29;;;;;;;76.20;38.00;;;;;;;2.52;95.64;95236.09;4987228;28;20042;-63
2021/01/30 04:27:56;;;;;;;69.55;31.45;;;;;;;2.56;96.02;95230.72;4985753;28;20485;-62
2021/01/30 04:30:25;;;;;;;74.85;37.22;;;;;;;0.36;95.96;94885.16;4986561;28;20042;-63
2021/01/30 04:32:51;;;;;;;70.53;36.17;;;;;;;2.73;94.90;95225.56;4985352;28;20085;-63
2021/01/30 04:35:20;;;;;;;61.97;31.52;;;;;;;2.67;95.66;95221.53;4987161;28;20030;-63
2021/01/30 04:37:45;;;;;;;86.97;38.63;;;;;;;2.67;95.23;95226.22;4986746;28;20038;-61
2021/01/30 04:40:42;;;;;;;92.38;39.67;;;;;;;2.56;96.77;95225.25;4986949;28;20083;-62
2021/01/30 04:43:39;;;;;;;71.85;33.72;;;;;;;2.22;96.65;95163.34;4986191;28;20089;-61
2021/01/30 04:46:34;;;;;;;79.97;37.08;;;;;;;2.57;96.93;95222.16;4986025;28;20146;-62
2021/01/30 04:49:08;;;;;;;65.90;34.25;;;;;;;2.54;97.52;95227.53;4985032;28;20035;-62
2021/01/30 04:51:46;;;;;;;77.03;40.28;;;;;;;2.63;97.61;95214.44;4985086;28;20448;-62
2021/01/30 04:54:30;;;;;;;84.43;42.10;;;;;;;2.65;97.59;95212.94;4986630;28;20042;-60
2021/01/30 04:57:37;;;;;;;73.75;35.22;;;;;;;2.77;97.04;95214.66;4986575;28;20642;-61
2021/01/30 05:00:13;;;;;;;60.50;29.75;;;;;;;2.74;97.01;95209.94;4983190;28;20054;-61
2021/01/30 05:02:49;;;;;;;75.82;36.40;;;;;;;2.36;97.71;95155.41;4984700;28;20497;-61
2021/01/30 05:05:19;;;;;;;59.05;31.13;;;;;;;2.47;96.72;95156.38;4986364;28;20121;-61
2021/01/30 05:07:52;;;;;;;69.75;36.08;;;;;;;0.55;96.82;94860.66;4986753;28;20472;-60
2021/01/30 05:10:31;;;;;;;68.60;35.42;;;;;;;2.37;97.06;95159.72;4986249;28;20548;-60
2021/01/30 05:13:17;;;;;;;66.30;35.22;;;;;;;2.69;97.80;95202.03;4985998;28;20034;-59
2021/01/30 05:15:57;;;;;;;72.47;35.20;;;;;;;2.68;98.52;95200.47;4985888;28;20035;-61
2021/01/30 05:18:35;;;;;;;85.57;40.67;;;;;;;2.75;98.08;95189.66;4986311;28;20133;-60
2021/01/30 05:21:13;;;;;;;68.40;33.05;;;;;;;2.76;97.52;95191.22;4985653;28;20042;-60
2021/01/30 05:23:42;;;;;;;61.33;27.98;;;;;;;2.67;98.55;95185.22;4986167;28;20038;-60
2021/01/30 05:26:31;;;;;;;55.85;26.60;;;;;;;2.67;99.28;95182.50;4984348;28;20555;-60
2021/01/30 05:29:20;;;;;;;53.00;24.60;;;;;;;2.71;99.07;95177.88;4986138;28;20164;-60
2021/01/30 05:32:06;;;;;;;58.05;26.63;;;;;;;2.08;99.36;95090.19;4985482;28;20096;-61
2021/01/30 05:34:48;;;;;;;80.90;41.38;;;;;;;2.77;98.38;95193.59;4985996;28;20104;-60
2021/01/30 05:37:26;;;;;;;105.35;50.95;;;;;;;2.74;98.64;95199.00;4985511;28;20066;-62
2021/01/30 05:40:03;;;;;;;82.97;44.95;;;;;;;2.55;99.79;95188.13;4984028;28;20034;-60
2021/01/30 05:42:38;;;;;;;68.30;36.92;;;;;;;2.43;100.00;95193.78;4984848;28;20070;-61
2021/01/30 05:45:24;;;;;;;74.10;40.33;;;;;;;2.45;100.00;95183.28;4984055;28;20429;-61
2021/01/30 05:47:51;;;;;;;69.15;36.70;;;;;;;-0.67;100.00;94682.13;4985333;28;20403;-61
2021/01/30 05:50:26;;;;;;;84.32;45.22;;;;;;;2.44;100.00;95166.09;4985865;28;20034;-61
2021/01/30 05:52:55;;;;;;;71.07;41.15;;;;;;;2.47;100.00;95167.31;4985301;28;20040;-60
2021/01/30 05:55:25;;;;;;;73.03;41.95;;;;;;;2.48;100.00;95174.38;4983919;28;20038;-61
2021/01/30 05:57:51;;;;;;;91.05;47.38;;;;;;;1.67;100.00;95046.53;4981780;28;20027;-68
2021/01/30 06:00:19;;;;;;;86.93;47.45;;;;;;;1.89;100.00;95108.53;4984007;28;20030;-63
2021/01/30 06:03:01;;;;;;;87.38;49.65;;;;;;;2.60;100.00;95248.75;4981682;28;20144;-64
2021/01/30 06:05:33;;;;;;;150.25;74.60;;;;;;;2.57;100.00;95177.63;4983537;28;20054;-67
2021/01/30 06:08:18;;;;;;;687.85;161.30;;;;;;;2.35;100.00;95171.03;4976631;28;20046;-68
2021/01/30 06:10:46;;;;;;;118.22;61.13;;;;;;;2.76;100.00;95177.56;4982852;28;20512;-65
2021/01/30 06:13:15;;;;;;;102.00;55.17;;;;;;;2.81;100.00;95171.78;4981463;28;20030;-67
2021/01/30 06:15:47;;;;;;;130.60;68.15;;;;;;;2.85;100.00;95173.41;4979764;28;20058;-67
2021/01/30 06:18:25;;;;;;;105.07;57.35;;;;;;;2.72;100.00;95176.69;4981907;28;20041;-64
2021/01/30 06:20:58;;;;;;;201.27;92.93;;;;;;;2.61;100.00;95159.34;4960747;28;20046;-68
2021/01/30 06:23:24;;;;;;;173.07;83.97;;;;;;;2.78;100.00;95188.94;4966374;28;20065;-65
2021/01/30 06:25:49;;;;;;;138.20;72.45;;;;;;;2.84;100.00;95187.47;4965115;28;20422;-68
2021/01/30 06:28:14;;;;;;;149.70;74.95;;;;;;;2.88;100.00;95193.75;4964431;28;20038;-67
2021/01/30 06:30:43;;;;;;;161.63;84.32;;;;;;;2.91;99.64;95187.56;4997664;28;20030;-67
2021/01/30 06:33:36;;;;;;;152.27;78.00;;;;;;;2.85;100.00;95197.22;4964843;28;20113;-67
2021/01/30 06:36:16;;;;;;;127.10;68.70;;;;;;;1.90;100.00;95110.13;4967968;28;20767;-68
2021/01/30 06:38:58;;;;;;;131.98;68.47;;;;;;;1.95;100.00;95025.19;4963953;28;20035;-67
2021/01/30 06:41:31;;;;;;;143.60;73.50;;;;;;;3.10;100.00;95182.00;4983701;28;20117;-68
2021/01/30 06:44:19;;;;;;;136.90;68.75;;;;;;;2.38;98.96;95050.09;4984565;28;20034;-68
2021/01/30 06:47:09;;;;;;;134.38;70.32;;;;;;;3.25;97.67;95191.19;4984283;28;20054;-68
2021/01/30 06:49:38;;;;;;;141.18;72.43;;;;;;;3.29;98.07;95184.63;4978381;28;20575;-64
2021/01/30 06:52:32;;;;;;;206.95;94.07;;;;;;;3.30;98.64;95182.69;4976924;28;20143;-70
2021/01/30 06:55:04;;;;;;;307.17;138.93;;;;;;;3.32;98.90;95181.16;4973363;28;20660;-64
2021/01/30 06:57:32;;;;;;;310.17;146.30;;;;;;;2.55;98.64;95065.19;4964720;28;20031;-66
2021/01/30 07:00:04;;;;;;;329.45;154.50;;;;;;;3.36;98.68;95214.03;4961405;28;20041;-66
2021/01/30 07:02:37;;;;;;;277.45;137.25;;;;;;;3.07;97.79;95136.25;4994765;28;20046;-66
2021/01/30 07:05:30;;;;;;;163.90;84.30;;;;;;;3.49;97.77;95186.09;4967596;28;20038;-65
2021/01/30 07:08:01;;;;;;;92.87;51.00;;;;;;;3.47;97.83;95182.94;4967837;28;20038;-64
2021/01/30 07:10:36;;;;;;;105.95;56.47;;;;;;;3.18;97.34;95148.13;4967838;28;20796;-64
2021/01/30 07:13:15;;;;;;;99.90;56.38;;;;;;;3.53;96.58;95175.19;4968355;28;20037;-64
2021/01/30 07:16:13;;;;;;;131.20;68.03;;;;;;;3.58;96.03;95183.88;4968901;28;20065;-64
2021/01/30 07:19:46;;;;;;;176.77;94.32;;;;;;;3.58;95.93;95175.66;4949242;28;20055;-65
2021/01/30 07:22:16;;;;;;;190.15;97.32;;;;;;;3.47;97.12;95188.41;4891623;29;20040;-64
2021/01/30 07:24:44;;;;;;;196.07;101.88;;;;;;;3.42;97.92;95177.78;4891669;29;20039;-64
2021/01/30 07:27:25;;;;;;;199.32;104.30;;;;;;;3.57;97.79;95182.31;4918987;28;20194;-65
2021/01/30 07:30:05;;;;;;;137.13;72.25;;;;;;;3.54;98.38;95183.00;4963937;28;20185;-64
2021/01/30 07:32:37;;;;;;;137.13;73.60;;;;;;;3.64;97.94;95178.84;4948392;28;20049;-65
2021/01/30 07:35:18;;;;;;;127.90;67.15;;;;;;;3.69;98.41;95178.53;4948526;28;20351;-64
2021/01/30 07:37:57;;;;;;;127.63;64.43;;;;;;;3.38;98.42;95152.34;4946773;28;20133;-64
2021/01/30 07:40:48;;;;;;;113.65;60.10;;;;;;;3.60;97.71;95143.25;4975688;28;20042;-64
2021/01/30 07:43:34;;;;;;;121.18;56.20;;;;;;;3.73;97.17;95119.91;4966379;28;20127;-65
2021/01/30 07:46:16;;;;;;;83.93;43.13;;;;;;;4.42;95.79;95178.59;4967516;28;20132;-64
2021/01/30 07:48:58;;;;;;;49.22;28.92;;;;;;;4.38;94.48;95131.97;4968771;28;20503;-64
2021/01/30 07:51:31;;;;;;;49.38;28.73;;;;;;;4.86;92.54;95182.13;4968183;28;20049;-64
2021/01/30 07:53:56;;;;;;;;;;;;;;;4.97;90.49;95193.19;4968222;28;20058;-66
2021/01/30 07:56:58;;;;;;;83.75;43.13;;;;;;;4.90;91.20;95198.63;4968597;28;20008;-66
2021/01/30 07:59:33;;;;;;;88.68;48.08;;;;;;;4.44;90.78;95097.56;4968054;28;20052;-65
2021/01/30 08:02:11;;;;;;;82.80;49.72;;;;;;;5.28;90.06;95195.41;4968899;28;20035;-65
2021/01/30 08:04:55;;;;;;;83.35;47.50;;;;;;;5.46;89.48;95199.03;4968787;28;20065;-67
2021/01/30 08:07:35;;;;;;;74.35;42.58;;;;;;;5.51;89.73;95196.75;4968957;28;20547;-68
2021/01/30 08:10:05;;;;;;;83.65;47.47;;;;;;;5.60;88.11;95204.63;4968985;28;20034;-65
2021/01/30 08:13:02;;;;;;;80.18;42.25;;;;;;;5.59;89.01;95214.03;4968875;28;20097;-66
2021/01/30 08:15:36;;;;;;;101.88;56.08;;;;;;;5.62;88.68;95207.78;4965429;28;20047;-67
2021/01/30 08:18:12;;;;;;;106.55;51.72;;;;;;;5.55;88.62;95211.28;4965470;28;20061;-64
2021/01/30 08:20:49;;;;;;;138.00;61.92;;;;;;;5.19;90.12;95214.13;4965108;28;20148;-67
2021/01/30 08:23:17;;;;;;;76.43;44.00;;;;;;;5.65;89.65;95215.25;4967646;28;20041;-66
2021/01/30 08:26:12;;;;;;;90.32;50.17;;;;;;;5.73;89.92;95227.84;4966552;28;20030;-66
2021/01/30 08:28:51;;;;;;;71.57;39.13;;;;;;;5.92;89.42;95238.59;4967653;28;20046;-66
2021/01/30 08:31:42;;;;;;;48.45;28.08;;;;;;;5.97;88.57;95235.50;4968005;28;20050;-66
2021/01/30 08:34:26;;;;;;;58.95;35.15;;;;;;;6.08;88.97;95236.31;4969392;28;20500;-67
2021/01/30 08:36:53;;;;;;;54.30;28.88;;;;;;;6.32;88.46;95246.66;4968122;28;20042;-67
2021/01/30 08:39:21;;;;;;;41.22;23.70;;;;;;;6.56;87.10;95240.44;4966991;28;20054;-66
2021/01/30 08:41:49;;;;;;;37.42;22.95;;;;;;;6.83;85.93;95244.44;4967281;28;20409;-66
2021/01/30 08:44:36;;;;;;;46.25;27.58;;;;;;;5.94;87.84;95203.28;4967160;28;20453;-65
2021/01/30 08:47:12;;;;;;;34.42;20.73;;;;;;;5.89;91.16;95231.13;4966484;28;20038;-66
2021/01/30 08:49:39;;;;;;;35.30;21.88;;;;;;;5.73;89.06;95131.72;4966694;28;20038;-67
2021/01/30 08:52:14;;;;;;;39.72;23.55;;;;;;;7.00;86.92;95260.19;4967400;28;20046;-66
2021/01/30 08:54:41;;;;;;;55.55;30.52;;;;;;;7.01;85.77;95267.28;4967004;28;20031;-67
2021/01/30 08:57:31;;;;;;;69.07;40.65;;;;;;;6.77;87.39;95273.50;4967532;28;20105;-67
2021/01/30 09:00:03;;;;;;;57.22;36.75;;;;;;;5.65;85.96;95147.41;4966698;28;20606;-70
2021/01/30 09:02:34;;;;;;;44.08;26.70;;;;;;;6.64;85.48;95280.53;4966316;28;20116;-70
2021/01/30 09:05:10;;;;;;;28.23;18.65;;;;;;;6.57;84.50;95296.22;4966316;28;20182;-70
2021/01/30 09:07:35;;;;;;;28.63;18.85;;;;;;;6.61;85.40;95286.81;4967081;28;20061;-71
2021/01/30 09:10:16;;;;;;;30.85;18.70;;;;;;;6.62;86.21;95299.41;4964398;28;20030;-70
2021/01/30 09:13:08;;;;;;;30.27;19.67;;;;;;;6.87;83.59;95307.75;4965661;28;20038;-72
2021/01/30 09:15:43;;;;;;;33.88;20.55;;;;;;;4.45;83.16;94882.63;4995709;28;20077;-68
2021/01/30 09:18:27;;;;;;;53.72;27.88;;;;;;;7.02;83.18;95301.88;4965625;28;20054;-68
2021/01/30 09:20:56;;;;;;;35.70;22.85;;;;;;;6.60;83.84;95257.75;4966147;28;20494;-67
2021/01/30 09:23:33;;;;;;;35.13;23.40;;;;;;;7.21;84.06;95287.75;4963537;28;20042;-68
2021/01/30 09:26:14;;;;;;;40.17;24.27;;;;;;;7.60;82.06;95299.59;4965613;28;20034;-65
2021/01/30 09:28:39;;;;;;;28.75;20.35;;;;;;;7.50;82.57;95255.50;4964606;28;20054;-70
2021/01/30 09:31:15;;;;;;;29.10;20.02;;;;;;;7.64;82.69;95255.50;4965090;28;20064;-67
2021/01/30 09:33:47;;;;;;;29.10;19.67;;;;;;;8.10;81.34;95277.47;4966544;28;20042;-67
2021/01/30 09:36:31;;;;;;;29.55;20.17;;;;;;;8.55;80.14;95260.06;4962764;28;20037;-68
2021/01/30 09:39:01;;;;;;;44.67;29.13;;;;;;;8.86;78.62;95264.63;4965987;28;20643;-70
2021/01/30 09:41:33;;;;;;;58.00;35.53;;;;;;;8.88;77.37;95223.59;4958582;28;20092;-68
2021/01/30 09:44:08;;;;;;;53.22;34.47;;;;;;;9.38;76.06;95269.03;4960211;28;20394;-68
2021/01/30 09:46:42;;;;;;;49.53;28.60;;;;;;;7.32;74.82;94962.84;4964491;28;20412;-67
2021/01/30 09:49:15;;;;;;;26.92;18.70;;;;;;;9.61;75.12;95269.25;4968798;28;20033;-69
2021/01/30 09:51:41;;;;;;;27.42;18.40;;;;;;;9.78;74.87;95254.50;4983469;28;20488;-69
2021/01/30 09:54:12;;;;;;;19.30;14.00;;;;;;;9.75;74.10;95271.91;4983922;28;20042;-65
2021/01/30 09:56:37;;;;;;;18.77;13.27;;;;;;;9.55;75.08;95262.59;4983738;28;20387;-66
2021/01/30 09:59:05;;;;;;;17.63;12.45;;;;;;;9.59;74.76;95266.13;4984901;28;20041;-66
2021/01/30 10:01:38;;;;;;;19.98;12.88;;;;;;;7.31;74.73;94912.50;4967977;28;20042;-65
2021/01/30 10:04:25;;;;;;;21.50;14.00;;;;;;;9.76;74.73;95256.88;4997809;28;20038;-67
2021/01/30 10:06:54;;;;;;;29.95;16.20;;;;;;;10.02;73.60;95258.25;4984109;28;20057;-68
2021/01/30 10:09:23;;;;;;;23.83;14.88;;;;;;;9.99;71.65;95257.06;4985500;28;20039;-70
2021/01/30 10:11:58;;;;;;;17.85;11.95;;;;;;;9.77;71.28;95208.69;4983043;28;20100;-67
2021/01/30 10:14:25;;;;;;;24.17;15.57;;;;;;;10.14;70.93;95203.22;4985351;28;20077;-68
2021/01/30 10:16:59;;;;;;;38.75;22.83;;;;;;;10.21;72.24;95200.34;4984968;28;20498;-68
2021/01/30 10:19:29;;;;;;;33.15;22.13;;;;;;;10.80;72.94;95270.03;4983719;28;20046;-67
2021/01/30 10:21:55;;;;;;;49.15;29.33;;;;;;;10.13;71.86;95131.69;4984959;28;20097;-72
2021/01/30 10:24:24;;;;;;;62.65;32.47;;;;;;;11.07;69.90;95253.44;5015992;28;20120;-66
2021/01/30 10:26:52;;;;;;;61.10;34.25;;;;;;;11.12;69.71;95252.97;4984890;28;20042;-66
2021/01/30 10:29:20;;;;;;;51.30;28.85;;;;;;;11.27;68.67;95262.69;4986869;28;20031;-66
2021/01/30 10:32:00;;;;;;;40.78;27.30;;;;;;;11.23;67.28;95254.41;4987511;28;20037;-65
2021/01/30 10:34:36;;;;;;;43.22;27.35;;;;;;;11.32;66.73;95253.88;4986352;28;20034;-67
2021/01/30 10:37:10;;;;;;;38.15;24.73;;;;;;;11.40;66.46;95258.09;4988548;28;20117;-66
2021/01/30 10:39:43;;;;;;;41.58;27.00;;;;;;;11.28;67.33;95255.91;4988719;28;20038;-67
2021/01/30 10:42:16;;;;;;;47.60;26.65;;;;;;;10.81;67.26;95204.34;4988425;28;20046;-68
2021/01/30 10:44:47;;;;;;;38.80;25.70;;;;;;;11.40;65.75;95263.66;4989005;28;20045;-65
2021/01/30 10:47:14;;;;;;;32.17;20.98;;;;;;;11.02;65.90;95204.06;4988935;28;20228;-66
2021/01/30 10:49:40;;;;;;;34.35;22.60;;;;;;;11.51;65.56;95259.53;4989041;28;20476;-66
2021/01/30 10:52:12;;;;;;;25.50;16.15;;;;;;;11.52;64.14;95233.34;4988500;28;20070;-64
2021/01/30 10:54:42;;;;;;;21.00;13.50;;;;;;;11.58;63.30;95233.69;4989091;28;20073;-65
2021/01/30 10:57:17;;;;;;;14.43;10.55;;;;;;;11.73;63.39;95273.84;4988698;28;20080;-65
2021/01/30 11:00:01;;;;;;;15.50;10.23;;;;;;;11.11;64.85;95234.81;4988843;28;20085;-66
2021/01/30 11:02:27;;;;;;;18.30;10.35;;;;;;;11.38;65.23;95277.16;4987607;28;20590;-66
2021/01/30 11:05:00;;;;;;;16.50;9.40;;;;;;;10.33;65.94;95155.56;4988889;28;20077;-65
2021/01/30 11:07:36;;;;;;;15.05;9.95;;;;;;;10.53;67.67;95239.50;4986444;28;20030;-65
2021/01/30 11:10:01;;;;;;;13.50;9.50;;;;;;;10.62;67.07;95248.09;4988813;28;20550;-64
2021/01/30 11:12:27;;;;;;;14.35;9.07;;;;;;;10.68;67.42;95274.13;4986167;28;20167;-64
2021/01/30 11:14:52;;;;;;;13.02;9.23;;;;;;;10.43;69.04;95279.16;5003061;28;20039;-66
2021/01/30 11:17:31;;;;;;;14.75;8.02;;;;;;;9.86;70.29;95278.13;4987990;28;20038;-67
2021/01/30 11:19:58;;;;;;;10.43;7.28;;;;;;;9.85;70.45;95282.06;5003371;28;20030;-67
2021/01/30 11:22:25;;;;;;;20.77;13.32;;;;;;;9.92;71.26;95282.03;4987890;28;20050;-65
2021/01/30 11:25:05;;;;;;;18.48;11.38;;;;;;;9.84;71.69;95274.19;4988228;28;20038;-64
2021/01/30 11:27:33;;;;;;;17.13;10.60;;;;;;;9.81;72.18;95264.75;4987951;28;20040;-66
2021/01/30 11:30:17;;;;;;;18.17;11.75;;;;;;;9.68;72.38;95262.88;4986728;28;20032;-65
2021/01/30 11:32:50;;;;;;;22.23;12.30;;;;;;;8.98;72.13;95140.69;4986390;28;20429;-66
2021/01/30 11:35:33;;;;;;;18.50;13.15;;;;;;;9.76;73.52;95278.22;4988404;28;20421;-65
2021/01/30 11:38:04;;;;;;;13.27;8.70;;;;;;;9.76;72.87;95273.47;4987946;28;20116;-65
2021/01/30 11:40:30;;;;;;;12.27;8.10;;;;;;;9.74;72.97;95270.31;5001441;28;20130;-65
2021/01/30 11:42:56;;;;;;;12.50;8.35;;;;;;;9.89;72.52;95271.78;4986354;28;20034;-64
2021/01/30 11:45:21;;;;;;;18.33;9.77;;;;;;;10.09;71.82;95258.97;4985901;28;20044;-65
2021/01/30 11:47:46;;;;;;;32.17;17.05;;;;;;;10.32;69.90;95267.41;4987749;28;20026;-65
2021/01/30 11:50:12;;;;;;;12.63;8.15;;;;;;;9.83;70.84;95223.63;4987836;28;20121;-66